Marcel — ONDP — position and weather

sailwx.info

Track history (hours):
 
Tides and Currents Weather Stations Pressure Air Temp Water Temp Dewpoint Dewpoint Depression Visibility Wind Speed Wind Dir Waves Ship Positions

Marcel

Last reported at 2014-Sep-19 16:33 UTC. Time now 2014-Sep-21 18:14 UTC.
Position N 50°22' W 004°08'.

Length 88 m; draft 5.7 m.

Type: Fishing. MMSI: 205439000.

Date/timePositionNaut miles runAvg speedWind from/ knotsBaromVisibWave heightAir tempDewpointWater temp
2014-Sep-19 16:33N 50°22' W 004°08'0 0.1
2014-Sep-19 15:33N 50°22' W 004°08'0 0.0
2014-Sep-19 14:29N 50°22' W 004°08'0 0.0
2014-Sep-19 13:33N 50°22' W 004°08'0 0.0
2014-Sep-19 12:31N 50°22' W 004°08'0 0.0
2014-Sep-19 11:31N 50°22' W 004°08'0 0.0
2014-Sep-19 10:31N 50°22' W 004°08'0 0.0
2014-Sep-19 09:31N 50°22' W 004°08'0 0.0
2014-Sep-19 08:31N 50°22' W 004°08'0 0.0
2014-Sep-19 07:31N 50°22' W 004°08'0 0.0
2014-Sep-19 06:31N 50°22' W 004°08'0 0.0
2014-Sep-19 05:33N 50°22' W 004°08'0 0.0
2014-Sep-19 04:33N 50°22' W 004°08'0 0.0
2014-Sep-19 03:33N 50°22' W 004°08'0 0.0
2014-Sep-19 02:33N 50°22' W 004°08'0 0.0
2014-Sep-19 01:32N 50°22' W 004°08'0 0.0
2014-Sep-19 00:32N 50°22' W 004°08'0 0.0
2014-Sep-18 23:32N 50°22' W 004°08'0 0.0
2014-Sep-18 22:31N 50°22' W 004°08'0 0.0
2014-Sep-18 21:31N 50°22' W 004°08'0 0.0
2014-Sep-18 20:31N 50°22' W 004°08'0 0.0
2014-Sep-18 19:31N 50°22' W 004°08'2 0.6
2014-Sep-18 16:29N 50°21' W 004°09'0 0.0
2014-Sep-18 15:33N 50°21' W 004°09'0 0.0
2014-Sep-18 14:33N 50°21' W 004°09'0 0.1
2014-Sep-18 13:33N 50°21' W 004°09'0 0.0
2014-Sep-18 12:33N 50°21' W 004°09'0 0.0
2014-Sep-18 11:31N 50°21' W 004°09'0 0.0
2014-Sep-18 10:30N 50°21' W 004°09'0 0.0
2014-Sep-18 09:32N 50°21' W 004°09'0 0.0
2014-Sep-18 08:32N 50°21' W 004°09'1 0.5
2014-Sep-18 07:34N 50°20' W 004°10'160 9.8
2014-Sep-17 15:14N 50°30' E 000°00'11 9.8
2014-Sep-17 14:07N 50°34' E 000°17'6 9.9
2014-Sep-17 13:32N 50°35' E 000°26'1010.2
2014-Sep-17 12:34N 50°40' E 000°40'1111.2
2014-Sep-17 11:34N 50°47' E 000°53'1411.5
2014-Sep-17 10:20N 50°56' E 001°11'911.1
2014-Sep-17 09:32N 51°01' E 001°21'1010.5
2014-Sep-17 08:34N 51°08' E 001°34'10 9.7
2014-Sep-17 07:33N 51°14' E 001°45'10 9.6
2014-Sep-17 06:33N 51°22' E 001°55'12 9.9
2014-Sep-17 05:22N 51°31' E 002°06'910.4
2014-Sep-17 04:29N 51°38' E 002°16'1111.1
2014-Sep-17 03:30N 51°46' E 002°28'2610.8
2014-Sep-17 01:07N 52°01' E 003°02'610.9
2014-Sep-17 00:33N 52°02' E 003°12'1110.8
2014-Sep-16 23:33N 52°03' E 003°29'1010.5
2014-Sep-16 22:33N 52°03' E 003°46'9 9.1
2014-Sep-16 21:33N 52°00' E 004°00'1010.5
2014-Sep-16 20:33N 51°55' E 004°15'6 6.2
2014-Sep-16 19:33N 51°55' E 004°25'0 0.0
2014-Sep-16 18:33N 51°55' E 004°25'0 0.0
2014-Sep-16 17:33N 51°55' E 004°25'0 0.0
2014-Sep-16 16:30N 51°55' E 004°25'0 0.0
2014-Sep-16 15:19N 51°55' E 004°25'0 0.0
2014-Sep-16 14:30N 51°55' E 004°25'0 0.0
2014-Sep-16 13:24N 51°55' E 004°25'0 0.0
2014-Sep-16 12:31N 51°55' E 004°25'0 0.0
2014-Sep-16 11:27N 51°55' E 004°25'0 0.0
2014-Sep-16 10:23N 51°55' E 004°25'0 0.0
2014-Sep-16 09:26N 51°55' E 004°25'0 0.0
2014-Sep-16 08:32N 51°55' E 004°25'0 0.0
2014-Sep-16 07:26N 51°55' E 004°25'0 0.0
2014-Sep-16 06:32N 51°55' E 004°25'0 0.0
2014-Sep-16 05:30N 51°55' E 004°25'0 0.0
2014-Sep-16 04:33N 51°55' E 004°25'0 0.0
2014-Sep-16 03:28N 51°55' E 004°25'0 0.0
2014-Sep-16 02:32N 51°55' E 004°25'0 0.0
2014-Sep-16 01:27N 51°55' E 004°25'0 0.0
2014-Sep-16 00:32N 51°55' E 004°25'0 0.0
2014-Sep-15 23:26N 51°55' E 004°25'0 0.0
2014-Sep-15 22:32N 51°55' E 004°25'0 0.0
2014-Sep-15 21:33N 51°55' E 004°25'0 0.0
2014-Sep-15 20:26N 51°55' E 004°25'0 0.0
2014-Sep-15 19:31N 51°55' E 004°25'0 0.0
2014-Sep-15 18:32N 51°55' E 004°25'0 0.0
2014-Sep-15 17:26N 51°55' E 004°25'0 0.0
2014-Sep-15 16:32N 51°55' E 004°25'0 0.0
2014-Sep-15 15:33N 51°55' E 004°25'0 0.0
2014-Sep-15 14:29N 51°55' E 004°25'0 0.0
2014-Sep-15 13:33N 51°55' E 004°25'0 0.0
2014-Sep-15 12:31N 51°55' E 004°25'0 0.0
2014-Sep-15 11:27N 51°55' E 004°25'0 0.0
2014-Sep-15 10:31N 51°55' E 004°25'0 0.0
2014-Sep-15 08:31N 51°55' E 004°25'0 0.0
2014-Sep-15 07:33N 51°55' E 004°25'0 0.0
2014-Sep-15 06:31N 51°55' E 004°25'0 0.0
2014-Sep-15 05:30N 51°55' E 004°25'2 2.2
2014-Sep-15 04:33N 51°54' E 004°22'8 7.8
2014-Sep-15 03:33N 51°57' E 004°10'7 7.4
2014-Sep-15 02:33N 51°60' E 003°59'8 7.7
2014-Sep-15 01:33N 51°59' E 003°46'8 7.3
2014-Sep-15 00:26N 51°57' E 003°34'50 8.4
2014-Sep-14 18:30N 51°34' E 002°22'1010.1
2014-Sep-14 17:32N 51°26' E 002°14'1210.5
2014-Sep-14 16:25N 51°15' E 002°05'910.7
2014-Sep-14 15:33N 51°09' E 001°54'  
Track history (hours):
 
Tides and Currents Weather Stations Pressure Air Temp Water Temp Dewpoint Dewpoint Depression Visibility Wind Speed Wind Dir Waves Ship Positions

Marcel

Last reported at 2014-Sep-19 16:33 UTC. Time now 2014-Sep-21 18:14 UTC.
Position N 50°22' W 004°08'.

Length 88 m; draft 5.7 m.

Type: Fishing. MMSI: 205439000.

Date/timePositionNaut miles runAvg speedWind from/ knotsBaromVisibWave heightAir tempDewpointWater temp
2014-Sep-19 16:33N 50°22' W 004°08'0 0.1
2014-Sep-19 15:33N 50°22' W 004°08'0 0.0
2014-Sep-19 14:29N 50°22' W 004°08'0 0.0
2014-Sep-19 13:33N 50°22' W 004°08'0 0.0
2014-Sep-19 12:31N 50°22' W 004°08'0 0.0
2014-Sep-19 11:31N 50°22' W 004°08'0 0.0
2014-Sep-19 10:31N 50°22' W 004°08'0 0.0
2014-Sep-19 09:31N 50°22' W 004°08'0 0.0
2014-Sep-19 08:31N 50°22' W 004°08'0 0.0
2014-Sep-19 07:31N 50°22' W 004°08'0 0.0
2014-Sep-19 06:31N 50°22' W 004°08'0 0.0
2014-Sep-19 05:33N 50°22' W 004°08'0 0.0
2014-Sep-19 04:33N 50°22' W 004°08'0 0.0
2014-Sep-19 03:33N 50°22' W 004°08'0 0.0
2014-Sep-19 02:33N 50°22' W 004°08'0 0.0
2014-Sep-19 01:32N 50°22' W 004°08'0 0.0
2014-Sep-19 00:32N 50°22' W 004°08'0 0.0
2014-Sep-18 23:32N 50°22' W 004°08'0 0.0
2014-Sep-18 22:31N 50°22' W 004°08'0 0.0
2014-Sep-18 21:31N 50°22' W 004°08'0 0.0
2014-Sep-18 20:31N 50°22' W 004°08'0 0.0
2014-Sep-18 19:31N 50°22' W 004°08'2 0.6
2014-Sep-18 16:29N 50°21' W 004°09'0 0.0
2014-Sep-18 15:33N 50°21' W 004°09'0 0.0
2014-Sep-18 14:33N 50°21' W 004°09'0 0.1
2014-Sep-18 13:33N 50°21' W 004°09'0 0.0
2014-Sep-18 12:33N 50°21' W 004°09'0 0.0
2014-Sep-18 11:31N 50°21' W 004°09'0 0.0
2014-Sep-18 10:30N 50°21' W 004°09'0 0.0
2014-Sep-18 09:32N 50°21' W 004°09'0 0.0
2014-Sep-18 08:32N 50°21' W 004°09'1 0.5
2014-Sep-18 07:34N 50°20' W 004°10'160 9.8
2014-Sep-17 15:14N 50°30' E 000°00'11 9.8
2014-Sep-17 14:07N 50°34' E 000°17'6 9.9
2014-Sep-17 13:32N 50°35' E 000°26'1010.2
2014-Sep-17 12:34N 50°40' E 000°40'1111.2
2014-Sep-17 11:34N 50°47' E 000°53'1411.5
2014-Sep-17 10:20N 50°56' E 001°11'911.1
2014-Sep-17 09:32N 51°01' E 001°21'1010.5
2014-Sep-17 08:34N 51°08' E 001°34'10 9.7
2014-Sep-17 07:33N 51°14' E 001°45'10 9.6
2014-Sep-17 06:33N 51°22' E 001°55'12 9.9
2014-Sep-17 05:22N 51°31' E 002°06'910.4
2014-Sep-17 04:29N 51°38' E 002°16'1111.1
2014-Sep-17 03:30N 51°46' E 002°28'2610.8
2014-Sep-17 01:07N 52°01' E 003°02'610.9
2014-Sep-17 00:33N 52°02' E 003°12'1110.8
2014-Sep-16 23:33N 52°03' E 003°29'1010.5
2014-Sep-16 22:33N 52°03' E 003°46'9 9.1
2014-Sep-16 21:33N 52°00' E 004°00'1010.5
2014-Sep-16 20:33N 51°55' E 004°15'6 6.2
2014-Sep-16 19:33N 51°55' E 004°25'0 0.0
2014-Sep-16 18:33N 51°55' E 004°25'0 0.0
2014-Sep-16 17:33N 51°55' E 004°25'0 0.0
2014-Sep-16 16:30N 51°55' E 004°25'0 0.0
2014-Sep-16 15:19N 51°55' E 004°25'0 0.0
2014-Sep-16 14:30N 51°55' E 004°25'0 0.0
2014-Sep-16 13:24N 51°55' E 004°25'0 0.0
2014-Sep-16 12:31N 51°55' E 004°25'0 0.0
2014-Sep-16 11:27N 51°55' E 004°25'0 0.0
2014-Sep-16 10:23N 51°55' E 004°25'0 0.0
2014-Sep-16 09:26N 51°55' E 004°25'0 0.0
2014-Sep-16 08:32N 51°55' E 004°25'0 0.0
2014-Sep-16 07:26N 51°55' E 004°25'0 0.0
2014-Sep-16 06:32N 51°55' E 004°25'0 0.0
2014-Sep-16 05:30N 51°55' E 004°25'0 0.0
2014-Sep-16 04:33N 51°55' E 004°25'0 0.0
2014-Sep-16 03:28N 51°55' E 004°25'0 0.0
2014-Sep-16 02:32N 51°55' E 004°25'0 0.0
2014-Sep-16 01:27N 51°55' E 004°25'0 0.0
2014-Sep-16 00:32N 51°55' E 004°25'0 0.0
2014-Sep-15 23:26N 51°55' E 004°25'0 0.0
2014-Sep-15 22:32N 51°55' E 004°25'0 0.0
2014-Sep-15 21:33N 51°55' E 004°25'0 0.0
2014-Sep-15 20:26N 51°55' E 004°25'0 0.0
2014-Sep-15 19:31N 51°55' E 004°25'0 0.0
2014-Sep-15 18:32N 51°55' E 004°25'0 0.0
2014-Sep-15 17:26N 51°55' E 004°25'0 0.0
2014-Sep-15 16:32N 51°55' E 004°25'0 0.0
2014-Sep-15 15:33N 51°55' E 004°25'0 0.0
2014-Sep-15 14:29N 51°55' E 004°25'0 0.0
2014-Sep-15 13:33N 51°55' E 004°25'0 0.0
2014-Sep-15 12:31N 51°55' E 004°25'0 0.0
2014-Sep-15 11:27N 51°55' E 004°25'0 0.0
2014-Sep-15 10:31N 51°55' E 004°25'0 0.0
2014-Sep-15 08:31N 51°55' E 004°25'0 0.0
2014-Sep-15 07:33N 51°55' E 004°25'0 0.0
2014-Sep-15 06:31N 51°55' E 004°25'0 0.0
2014-Sep-15 05:30N 51°55' E 004°25'2 2.2
2014-Sep-15 04:33N 51°54' E 004°22'8 7.8
2014-Sep-15 03:33N 51°57' E 004°10'7 7.4
2014-Sep-15 02:33N 51°60' E 003°59'8 7.7
2014-Sep-15 01:33N 51°59' E 003°46'8 7.3
2014-Sep-15 00:26N 51°57' E 003°34'50 8.4
2014-Sep-14 18:30N 51°34' E 002°22'1010.1
2014-Sep-14 17:32N 51°26' E 002°14'1210.5
2014-Sep-14 16:25N 51°15' E 002°05'910.7
2014-Sep-14 15:33N 51°09' E 001°54'  

Dump ship's entire track history